sensor_id;sensor_type;location;lat;lon;timestamp;temperature;humidity
5286;DHT22;2665;53.112;7.358;2023-04-03T09:27:38;7.30;34.40
5286;DHT22;2665;53.112;7.358;2023-04-03T09:30:04;7.30;48.80
5286;DHT22;2665;53.112;7.358;2023-04-03T09:32:31;7.40;47.40
5286;DHT22;2665;53.112;7.358;2023-04-03T09:35:51;7.50;42.80
5286;DHT22;2665;53.112;7.358;2023-04-03T09:40:40;7.50;35.60
5286;DHT22;2665;53.112;7.358;2023-04-03T09:43:30;7.60;33.90
5286;DHT22;2665;53.112;7.358;2023-04-03T09:46:16;7.70;32.30
5286;DHT22;2665;53.112;7.358;2023-04-03T09:48:56;7.80;30.40
5286;DHT22;2665;53.112;7.358;2023-04-03T09:51:25;7.90;29.40
5286;DHT22;2665;53.112;7.358;2023-04-03T09:53:52;8.00;27.30
5286;DHT22;2665;53.112;7.358;2023-04-03T09:56:21;8.10;26.70
5286;DHT22;2665;53.112;7.358;2023-04-03T09:58:50;8.20;25.90
5286;DHT22;2665;53.112;7.358;2023-04-03T10:01:38;8.30;25.70
5286;DHT22;2665;53.112;7.358;2023-04-03T10:04:15;8.50;26.60
5286;DHT22;2665;53.112;7.358;2023-04-03T10:06:52;8.80;25.10
5286;DHT22;2665;53.112;7.358;2023-04-03T10:12:06;9.10;24.90
5286;DHT22;2665;53.112;7.358;2023-04-03T10:14:53;9.20;24.00
5286;DHT22;2665;53.112;7.358;2023-04-03T10:30:58;9.40;23.30
5286;DHT22;2665;53.112;7.358;2023-04-03T10:36:17;9.50;18.20
5286;DHT22;2665;53.112;7.358;2023-04-03T10:39:04;9.70;18.30
5286;DHT22;2665;53.112;7.358;2023-04-03T10:44:49;10.10;17.50
5286;DHT22;2665;53.112;7.358;2023-04-03T10:47:24;10.10;15.70
5286;DHT22;2665;53.112;7.358;2023-04-03T10:57:40;10.20;15.40
5286;DHT22;2665;53.112;7.358;2023-04-03T11:00:42;10.30;15.80
5286;DHT22;2665;53.112;7.358;2023-04-03T11:03:04;10.40;15.40
5286;DHT22;2665;53.112;7.358;2023-04-03T11:05:39;10.50;15.00
5286;DHT22;2665;53.112;7.358;2023-04-03T11:11:24;10.40;12.90
5286;DHT22;2665;53.112;7.358;2023-04-03T11:14:14;10.60;13.60
5286;DHT22;2665;53.112;7.358;2023-04-03T11:16:45;11.20;14.90
5286;DHT22;2665;53.112;7.358;2023-04-03T11:19:22;12.40;17.20
5286;DHT22;2665;53.112;7.358;2023-04-03T11:21:54;14.00;20.50
5286;DHT22;2665;53.112;7.358;2023-04-03T11:24:27;15.20;21.30
5286;DHT22;2665;53.112;7.358;2023-04-03T11:26:56;16.20;21.70
5286;DHT22;2665;53.112;7.358;2023-04-03T11:29:34;17.00;22.60
5286;DHT22;2665;53.112;7.358;2023-04-03T11:35:00;18.50;22.00
5286;DHT22;2665;53.112;7.358;2023-04-03T11:37:42;18.70;13.50
5286;DHT22;2665;53.112;7.358;2023-04-03T11:42:51;18.80;10.00
5286;DHT22;2665;53.112;7.358;2023-04-03T11:47:57;18.90;7.30
5286;DHT22;2665;53.112;7.358;2023-04-03T11:55:45;18.90;6.00
5286;DHT22;2665;53.112;7.358;2023-04-03T11:58:20;19.40;6.60
5286;DHT22;2665;53.112;7.358;2023-04-03T12:00:59;19.70;7.10
5286;DHT22;2665;53.112;7.358;2023-04-03T12:05:55;19.40;5.30
5286;DHT22;2665;53.112;7.358;2023-04-03T12:24:33;20.00;6.30
5286;DHT22;2665;53.112;7.358;2023-04-03T12:29:54;20.30;7.10
5286;DHT22;2665;53.112;7.358;2023-04-03T12:32:26;20.70;7.90
5286;DHT22;2665;53.112;7.358;2023-04-03T12:43:54;19.30;2.80
5286;DHT22;2665;53.112;7.358;2023-04-03T12:46:28;19.40;3.80
5286;DHT22;2665;53.112;7.358;2023-04-03T12:48:58;19.90;6.50
5286;DHT22;2665;53.112;7.358;2023-04-03T12:51:38;20.20;7.10
5286;DHT22;2665;53.112;7.358;2023-04-03T12:56:40;19.70;4.70
5286;DHT22;2665;53.112;7.358;2023-04-03T12:59:23;19.30;4.50
5286;DHT22;2665;53.112;7.358;2023-04-03T13:01:58;19.20;4.70
5286;DHT22;2665;53.112;7.358;2023-04-03T13:04:24;19.50;6.90
5286;DHT22;2665;53.112;7.358;2023-04-03T13:06:50;19.40;5.90
5286;DHT22;2665;53.112;7.358;2023-04-03T13:09:22;19.30;6.80
5286;DHT22;2665;53.112;7.358;2023-04-03T13:11:59;19.20;6.60
5286;DHT22;2665;53.112;7.358;2023-04-03T13:14:27;19.30;8.60
5286;DHT22;2665;53.112;7.358;2023-04-03T13:19:30;19.80;9.30
5286;DHT22;2665;53.112;7.358;2023-04-03T13:22:08;19.90;9.90
5286;DHT22;2665;53.112;7.358;2023-04-03T13:24:37;19.90;10.00
5286;DHT22;2665;53.112;7.358;2023-04-03T13:27:06;19.80;9.60
5286;DHT22;2665;53.112;7.358;2023-04-03T13:29:35;19.50;9.00
5286;DHT22;2665;53.112;7.358;2023-04-03T13:32:03;19.30;8.90
5286;DHT22;2665;53.112;7.358;2023-04-03T13:34:40;19.20;10.40
5286;DHT22;2665;53.112;7.358;2023-04-03T13:37:06;19.30;10.40
5286;DHT22;2665;53.112;7.358;2023-04-03T13:39:37;19.70;11.50
5286;DHT22;2665;53.112;7.358;2023-04-03T13:42:28;20.00;12.60
5286;DHT22;2665;53.112;7.358;2023-04-03T13:45:23;20.20;14.00
5286;DHT22;2665;53.112;7.358;2023-04-03T13:47:51;19.90;12.00
5286;DHT22;2665;53.112;7.358;2023-04-03T13:50:23;19.80;12.10
5286;DHT22;2665;53.112;7.358;2023-04-03T13:53:02;19.70;12.40
5286;DHT22;2665;53.112;7.358;2023-04-03T13:55:34;20.10;14.20
5286;DHT22;2665;53.112;7.358;2023-04-03T14:01:10;19.90;14.00
5286;DHT22;2665;53.112;7.358;2023-04-03T14:03:55;20.00;14.30
5286;DHT22;2665;53.112;7.358;2023-04-03T14:06:22;19.60;13.50
5286;DHT22;2665;53.112;7.358;2023-04-03T14:08:48;19.40;13.20
5286;DHT22;2665;53.112;7.358;2023-04-03T14:11:20;19.40;13.00
5286;DHT22;2665;53.112;7.358;2023-04-03T14:13:48;19.30;14.40
5286;DHT22;2665;53.112;7.358;2023-04-03T14:16:18;19.10;13.60
5286;DHT22;2665;53.112;7.358;2023-04-03T14:18:44;19.40;15.10
5286;DHT22;2665;53.112;7.358;2023-04-03T14:21:16;19.20;14.20
5286;DHT22;2665;53.112;7.358;2023-04-03T14:23:41;18.80;13.40
5286;DHT22;2665;53.112;7.358;2023-04-03T14:26:14;18.70;14.40
5286;DHT22;2665;53.112;7.358;2023-04-03T14:28:41;19.00;15.20
5286;DHT22;2665;53.112;7.358;2023-04-03T14:31:08;18.80;15.20
5286;DHT22;2665;53.112;7.358;2023-04-03T14:33:35;18.40;14.40
5286;DHT22;2665;53.112;7.358;2023-04-03T14:36:05;18.50;14.50
5286;DHT22;2665;53.112;7.358;2023-04-03T14:38:36;18.70;15.70
5286;DHT22;2665;53.112;7.358;2023-04-03T14:41:02;18.80;16.60
5286;DHT22;2665;53.112;7.358;2023-04-03T14:43:27;19.10;18.00
5286;DHT22;2665;53.112;7.358;2023-04-03T14:45:53;19.10;17.50
5286;DHT22;2665;53.112;7.358;2023-04-03T14:48:22;19.00;17.60
5286;DHT22;2665;53.112;7.358;2023-04-03T14:50:49;18.70;16.60
5286;DHT22;2665;53.112;7.358;2023-04-03T14:53:16;18.50;16.20
5286;DHT22;2665;53.112;7.358;2023-04-03T14:55:44;18.30;16.90
5286;DHT22;2665;53.112;7.358;2023-04-03T14:58:16;18.40;18.10
5286;DHT22;2665;53.112;7.358;2023-04-03T15:00:42;18.40;18.20
5286;DHT22;2665;53.112;7.358;2023-04-03T15:03:13;18.30;18.00
5286;DHT22;2665;53.112;7.358;2023-04-03T15:05:39;17.90;17.60
5286;DHT22;2665;53.112;7.358;2023-04-03T15:08:08;18.10;18.80
5286;DHT22;2665;53.112;7.358;2023-04-03T15:10:38;18.10;18.70
5286;DHT22;2665;53.112;7.358;2023-04-03T15:13:03;18.50;20.40
5286;DHT22;2665;53.112;7.358;2023-04-03T15:15:29;18.70;21.70
5286;DHT22;2665;53.112;7.358;2023-04-03T15:17:56;19.00;22.50
5286;DHT22;2665;53.112;7.358;2023-04-03T15:20:26;18.80;21.60
5286;DHT22;2665;53.112;7.358;2023-04-03T15:22:53;18.80;22.00
5286;DHT22;2665;53.112;7.358;2023-04-03T15:25:19;18.90;23.40
5286;DHT22;2665;53.112;7.358;2023-04-03T15:27:45;18.70;22.30
5286;DHT22;2665;53.112;7.358;2023-04-03T15:30:16;18.50;21.80
5286;DHT22;2665;53.112;7.358;2023-04-03T15:32:42;18.10;21.50
5286;DHT22;2665;53.112;7.358;2023-04-03T15:35:08;18.00;21.70
5286;DHT22;2665;53.112;7.358;2023-04-03T15:47:18;18.40;15.80
5286;DHT22;2665;53.112;7.358;2023-04-03T15:49:43;18.40;26.50
5286;DHT22;2665;53.112;7.358;2023-04-03T15:52:09;18.40;25.70
5286;DHT22;2665;53.112;7.358;2023-04-03T15:54:35;18.10;26.00
5286;DHT22;2665;53.112;7.358;2023-04-03T15:57:00;17.80;39.70
5286;DHT22;2665;53.112;7.358;2023-04-03T15:59:26;17.80;26.30
5286;DHT22;2665;53.112;7.358;2023-04-03T16:01:52;17.90;25.70
5286;DHT22;2665;53.112;7.358;2023-04-03T16:04:19;18.10;27.50
5286;DHT22;2665;53.112;7.358;2023-04-03T16:06:46;18.20;27.40
5286;DHT22;2665;53.112;7.358;2023-04-03T16:09:12;18.00;27.60
5286;DHT22;2665;53.112;7.358;2023-04-03T16:11:37;17.70;27.40
5286;DHT22;2665;53.112;7.358;2023-04-03T16:14:06;17.70;27.30
5286;DHT22;2665;53.112;7.358;2023-04-03T16:16:32;17.80;28.70
5286;DHT22;2665;53.112;7.358;2023-04-03T16:18:57;17.50;27.70
5286;DHT22;2665;53.112;7.358;2023-04-03T16:21:23;17.30;28.10
5286;DHT22;2665;53.112;7.358;2023-04-03T16:23:49;17.30;28.40
5286;DHT22;2665;53.112;7.358;2023-04-03T16:26:15;17.40;30.70
5286;DHT22;2665;53.112;7.358;2023-04-03T16:28:42;17.50;30.80
5286;DHT22;2665;53.112;7.358;2023-04-03T16:31:08;17.70;31.80
5286;DHT22;2665;53.112;7.358;2023-04-03T16:33:35;17.50;31.70
5286;DHT22;2665;53.112;7.358;2023-04-03T16:36:03;17.30;30.60
5286;DHT22;2665;53.112;7.358;2023-04-03T16:38:28;17.00;29.90
5286;DHT22;2665;53.112;7.358;2023-04-03T16:40:54;16.70;37.40
5286;DHT22;2665;53.112;7.358;2023-04-03T16:43:22;16.60;30.70
5286;DHT22;2665;53.112;7.358;2023-04-03T16:45:48;16.50;31.70
5286;DHT22;2665;53.112;7.358;2023-04-03T16:48:13;16.20;32.20
5286;DHT22;2665;53.112;7.358;2023-04-03T16:50:39;16.30;34.00
5286;DHT22;2665;53.112;7.358;2023-04-03T16:53:05;16.20;35.00
5286;DHT22;2665;53.112;7.358;2023-04-03T16:55:33;16.00;34.40
5286;DHT22;2665;53.112;7.358;2023-04-03T16:57:59;15.90;34.80
5286;DHT22;2665;53.112;7.358;2023-04-03T17:00:24;15.80;35.30
5286;DHT22;2665;53.112;7.358;2023-04-03T17:02:50;15.60;36.60
5286;DHT22;2665;53.112;7.358;2023-04-03T17:05:16;15.40;36.40
5286;DHT22;2665;53.112;7.358;2023-04-03T17:07:41;14.90;36.60
5286;DHT22;2665;53.112;7.358;2023-04-03T17:10:07;14.60;36.40
5286;DHT22;2665;53.112;7.358;2023-04-03T17:12:33;14.30;37.50
5286;DHT22;2665;53.112;7.358;2023-04-03T17:14:59;14.20;38.60
5286;DHT22;2665;53.112;7.358;2023-04-03T17:17:25;14.20;40.20
5286;DHT22;2665;53.112;7.358;2023-04-03T17:19:51;14.00;41.30
5286;DHT22;2665;53.112;7.358;2023-04-03T17:22:19;13.80;44.50
5286;DHT22;2665;53.112;7.358;2023-04-03T17:24:45;13.70;42.00
5286;DHT22;2665;53.112;7.358;2023-04-03T17:27:10;13.10;42.20
5286;DHT22;2665;53.112;7.358;2023-04-03T17:29:36;12.30;42.10
5286;DHT22;2665;53.112;7.358;2023-04-03T17:32:01;11.60;43.30
5286;DHT22;2665;53.112;7.358;2023-04-03T17:34:27;11.10;44.50
5286;DHT22;2665;53.112;7.358;2023-04-03T17:36:53;10.50;46.30
5286;DHT22;2665;53.112;7.358;2023-04-03T17:39:19;10.10;46.60
5286;DHT22;2665;53.112;7.358;2023-04-03T17:41:45;9.70;48.90
